CZFN/ZFN METAR and TAF weather

Enter ICAO airport designator
Station Type Date Time Source
CZFN METAR 2022/01/28 00:00 UTC NOAA

CZFN 280000Z 01008KT 5SM -SN SCT034 OVC047 M17/M20 A3028 RMK SC3SC5 LAST STFD OBS NEXT 281600 SLP268


Station Type Date Time Source
CZFN Decoded METAR 2022/01/28 00:00 UTC NOAA

Fort Norman Airport, Canada (CZFN) 64-55N 125-34W
Jan 27, 2022 - 07:00 PM EST / 2022.01.28 0000 UTC
Wind: from the N (010 degrees) at 9 MPH (8 KT):0
Visibility: 5 mile(s):0
Sky conditions: overcast
Weather: light snow
Temperature: 1 F (-17 C)
Windchill: -13 F (-25 C):2
Dew Point: -4 F (-20 C)
Relative Humidity: 77%
Pressure (altimeter): 30.28 in. Hg (1025 hPa)
ob: CZFN 280000Z 01008KT 5SM -SN SCT034 OVC047 M17/M20 A3028 RMK SC3SC5 LAST STFD OBS NEXT 281600 SLP268
cycle: 0

Station Type Date Time Source
CZFN TAF UTC NOAA

Error!

Example: see airport list